Terminal Aerodrome Forecast
Issued by NWS

Home | Current Version | Previous Version | Text Only | Print | Product List | Glossary On
Versions: 1 2 3 4 5 6 7 8 9 10 11 12 13 14 15 16 17 18 19 20 21 22 23 24 25
000
FTUS42 KMFL 261137
TAFMIA
TAF
KMIA 261137Z 2612/2718 10008KT P6SM SHRA SCT020 SCT080 BKN120
     FM261400 12012KT P6SM SHRA VCTS FEW007 SCT015 BKN035CB
     FM261700 12015KT P6SM SHRA VCTS SCT010 BKN030CB
     FM271000 15015KT P6SM SHRA VCTS SCT010 BKN030CB=

USA.gov is the U.S. government's official web portal to all federal, state and local government web resources and services.